Time;durP1;ratioP1;P1;durP2;ratioP2;P2;SDS_P1;SDS_P2;PMS_P1;PMS_P2;Temp;Humidity;BMP_temperature;BMP_pressure;BME280_temperature;BME280_humidity;BME280_pressure;Samples;Min_cycle;Max_cycle;Signal;HPM_P1;HPM_P2
2023/04/05 00:01:00;;;;;;;9.57;8.60;;;-0.30;77.70;;;;;;5027795;28;20222;-65
2023/04/05 00:03:27;;;;;;;8.60;7.70;;;-0.10;76.50;;;;;;5027582;28;20201;-66
2023/04/05 00:05:54;;;;;;;12.02;8.70;;;-0.10;77.30;;;;;;5027700;28;20202;-66
2023/04/05 00:08:25;;;;;;;10.07;9.10;;;-0.10;76.40;;;;;;5028099;28;20577;-64
2023/04/05 00:10:52;;;;;;;11.07;8.98;;;0.00;75.60;;;;;;5025349;28;20201;-67
2023/04/05 00:13:19;;;;;;;11.15;8.52;;;0.10;76.00;;;;;;5023791;28;20198;-66
2023/04/05 00:15:48;;;;;;;11.02;8.57;;;0.00;76.30;;;;;;5027290;28;20205;-66
2023/04/05 00:18:20;;;;;;;12.25;10.52;;;-0.10;77.30;;;;;;5027527;28;20205;-66
2023/04/05 00:20:47;;;;;;;12.48;8.35;;;-0.20;77.60;;;;;;5027088;28;20256;-65
2023/04/05 00:23:15;;;;;;;15.65;10.18;;;-0.30;78.50;;;;;;5027471;28;20224;-66
2023/04/05 00:25:42;;;;;;;11.52;10.20;;;-0.30;78.80;;;;;;5027110;28;20206;-66
2023/04/05 00:28:09;;;;;;;10.43;9.43;;;-0.30;79.00;;;;;;5027453;28;20293;-66
2023/04/05 00:30:36;;;;;;;12.10;10.35;;;-0.40;78.80;;;;;;5026862;28;20222;-65
2023/04/05 00:33:04;;;;;;;11.10;10.00;;;-0.50;80.30;;;;;;5027302;28;20210;-65
2023/04/05 00:35:31;;;;;;;11.60;9.43;;;-0.50;80.60;;;;;;5027042;28;20209;-66
2023/04/05 00:37:58;;;;;;;11.55;9.77;;;-0.50;80.80;;;;;;5027678;28;20198;-66
2023/04/05 00:40:25;;;;;;;12.38;9.60;;;-0.40;80.60;;;;;;5026652;28;20240;-66
2023/04/05 00:42:52;;;;;;;10.57;9.27;;;-0.40;78.20;;;;;;5026581;28;20205;-66
2023/04/05 00:45:18;;;;;;;13.45;9.18;;;-0.50;76.70;;;;;;5027336;28;20202;-66
2023/04/05 00:47:45;;;;;;;10.95;8.88;;;-0.50;76.60;;;;;;5027188;28;20231;-66
2023/04/05 00:50:14;;;;;;;10.90;8.48;;;-0.50;76.90;;;;;;5027113;28;20222;-66
2023/04/05 00:52:43;;;;;;;11.63;9.77;;;-0.50;76.70;;;;;;5030884;28;20592;-64
2023/04/05 00:55:11;;;;;;;9.45;8.55;;;-0.40;76.30;;;;;;5032742;28;20206;-65
2023/04/05 00:57:38;;;;;;;11.50;10.02;;;-0.40;76.00;;;;;;5032838;28;20212;-66
2023/04/05 01:00:08;;;;;;;9.70;8.38;;;-0.50;75.70;;;;;;5032994;28;20640;-66
2023/04/05 01:02:44;;;;;;;11.05;9.77;;;-0.50;76.40;;;;;;5033290;28;20225;-66
2023/04/05 01:05:24;;;;;;;10.32;9.05;;;-0.70;77.50;;;;;;5033409;28;20581;-66
2023/04/05 01:07:58;;;;;;;12.25;10.40;;;-0.80;79.70;;;;;;5033546;28;20212;-67
2023/04/05 01:10:32;;;;;;;19.02;10.88;;;-0.80;81.00;;;;;;5033367;28;20236;-66
2023/04/05 01:12:59;;;;;;;11.52;10.32;;;-0.80;79.80;;;;;;5033228;28;20569;-67
2023/04/05 01:15:26;;;;;;;11.30;10.35;;;-0.80;80.80;;;;;;5033141;28;20212;-66
2023/04/05 01:17:56;;;;;;;11.32;10.02;;;-0.70;82.50;;;;;;5033187;28;20208;-67
2023/04/05 01:20:27;;;;;;;12.75;10.68;;;-0.70;82.40;;;;;;5032928;28;20279;-66
2023/04/05 01:23:17;;;;;;;12.65;10.52;;;-0.70;81.80;;;;;;5032827;28;20221;-68
2023/04/05 01:26:04;;;;;;;10.90;9.40;;;-0.60;84.90;;;;;;5032906;28;20684;-66
2023/04/05 01:28:56;;;;;;;12.57;9.65;;;-0.50;84.10;;;;;;5033233;28;20202;-66
2023/04/05 01:31:31;;;;;;;12.23;10.10;;;-0.50;83.30;;;;;;5024496;28;20683;-60
2023/04/05 01:34:06;;;;;;;11.20;9.20;;;-0.70;83.00;;;;;;5032829;28;20212;-65
2023/04/05 01:36:40;;;;;;;11.23;9.35;;;-0.70;81.10;;;;;;5032712;28;20266;-64
2023/04/05 01:39:11;;;;;;;12.63;9.93;;;-0.70;80.30;;;;;;5033064;28;20213;-65
2023/04/05 01:41:39;;;;;;;11.10;9.07;;;-0.80;82.00;;;;;;5033271;28;20695;-68
2023/04/05 01:44:05;;;;;;;11.10;10.00;;;-0.80;81.80;;;;;;5032673;28;20217;-66
2023/04/05 01:46:34;;;;;;;15.43;10.50;;;-0.80;80.30;;;;;;5033028;28;20210;-65
2023/04/05 01:49:00;;;;;;;10.45;8.82;;;-0.90;78.90;;;;;;5032140;28;20221;-66
2023/04/05 01:51:27;;;;;;;10.95;9.20;;;-0.80;77.90;;;;;;5033058;28;20201;-66
2023/04/05 01:53:54;;;;;;;10.68;8.63;;;-0.90;78.60;;;;;;5032624;28;20570;-64
2023/04/05 01:56:21;;;;;;;10.75;9.13;;;-0.80;77.40;;;;;;5032771;28;20213;-65
2023/04/05 01:58:47;;;;;;;11.57;9.75;;;-0.80;78.10;;;;;;5032309;28;20233;-66
2023/04/05 02:01:14;;;;;;;9.82;8.25;;;-0.80;77.50;;;;;;5032067;28;20244;-62
2023/04/05 02:03:42;;;;;;;11.52;9.85;;;-0.80;77.90;;;;;;5030888;28;20206;-66
2023/04/05 02:06:09;;;;;;;10.70;9.15;;;-0.80;80.50;;;;;;5032353;28;20225;-66
2023/04/05 02:08:36;;;;;;;9.35;8.18;;;-0.90;80.80;;;;;;5032454;28;20216;-61
2023/04/05 02:11:03;;;;;;;12.60;8.98;;;-0.90;79.00;;;;;;5032211;28;20216;-67
2023/04/05 02:13:29;;;;;;;14.27;8.93;;;-1.00;78.60;;;;;;5032107;28;20699;-67
2023/04/05 02:15:56;;;;;;;9.63;8.65;;;-1.10;78.80;;;;;;5031768;28;20678;-66
2023/04/05 02:18:28;;;;;;;11.75;8.65;;;-1.10;79.20;;;;;;5032253;28;20216;-64
2023/04/05 02:21:02;;;;;;;12.07;8.35;;;-1.10;78.90;;;;;;5032129;28;20209;-68
2023/04/05 02:23:29;;;;;;;9.40;8.00;;;-1.00;76.90;;;;;;5032107;28;20210;-67
2023/04/05 02:25:56;;;;;;;13.85;9.15;;;-0.80;75.90;;;;;;5032446;28;20202;-66
2023/04/05 02:28:23;;;;;;;9.80;8.50;;;-0.80;78.40;;;;;;5032011;28;20206;-66
2023/04/05 02:30:49;;;;;;;10.15;8.48;;;-0.60;77.50;;;;;;5031985;28;20216;-67
2023/04/05 02:33:16;;;;;;;10.70;8.00;;;-0.60;77.10;;;;;;5031087;28;20216;-66
2023/04/05 02:35:43;;;;;;;10.13;9.00;;;-0.70;77.10;;;;;;5032069;28;20201;-66
2023/04/05 02:38:11;;;;;;;12.25;9.55;;;-0.70;77.50;;;;;;5031584;28;20671;-66
2023/04/05 02:40:40;;;;;;;13.50;11.35;;;-0.60;78.30;;;;;;5031712;28;20587;-66
2023/04/05 02:43:07;;;;;;;16.85;9.70;;;-0.70;79.90;;;;;;5031182;28;20283;-61
2023/04/05 02:45:34;;;;;;;11.88;10.75;;;-0.80;80.50;;;;;;5031809;28;20209;-65
2023/04/05 02:48:01;;;;;;;13.13;10.80;;;-0.90;80.80;;;;;;5031879;28;20202;-65
2023/04/05 02:50:28;;;;;;;13.32;11.32;;;-1.00;81.70;;;;;;5031394;28;20237;-66
2023/04/05 02:52:55;;;;;;;14.45;11.60;;;-1.00;83.00;;;;;;5031520;28;20198;-66
2023/04/05 02:55:23;;;;;;;12.93;9.50;;;-0.90;83.80;;;;;;5031429;28;20209;-67
2023/04/05 02:57:50;;;;;;;11.50;10.30;;;-0.90;82.80;;;;;;5031804;28;20206;-67
2023/04/05 03:00:18;;;;;;;11.43;9.45;;;-1.00;83.10;;;;;;5031369;28;20226;-64
2023/04/05 03:02:44;;;;;;;16.85;9.95;;;-1.10;83.70;;;;;;5031082;28;20228;-63
2023/04/05 03:05:12;;;;;;;12.73;10.45;;;-1.10;84.00;;;;;;5031225;28;20202;-66
2023/04/05 03:07:41;;;;;;;11.88;10.60;;;-1.20;84.10;;;;;;5031442;28;20209;-66
2023/04/05 03:10:09;;;;;;;11.90;9.00;;;-1.10;84.70;;;;;;5031372;28;20232;-66
2023/04/05 03:12:37;;;;;;;13.50;9.55;;;-1.10;84.50;;;;;;5030840;28;20198;-68
2023/04/05 03:15:04;;;;;;;10.25;8.75;;;-1.10;84.20;;;;;;5031421;28;20301;-65
2023/04/05 03:17:31;;;;;;;13.13;10.02;;;-1.10;85.20;;;;;;5030863;28;20206;-66
2023/04/05 03:19:59;;;;;;;12.65;8.90;;;-1.00;86.20;;;;;;5031183;28;20229;-66
2023/04/05 03:22:27;;;;;;;14.13;10.75;;;-1.10;85.70;;;;;;5030530;28;20634;-65
2023/04/05 03:24:53;;;;;;;16.38;11.80;;;-1.20;85.40;;;;;;5030942;28;20616;-65
2023/04/05 03:27:20;;;;;;;13.25;10.65;;;-1.50;85.20;;;;;;5030731;28;20206;-64
2023/04/05 03:29:48;;;;;;;12.68;9.95;;;-1.60;85.70;;;;;;5030848;28;20222;-66
2023/04/05 03:32:16;;;;;;;13.07;11.02;;;-1.60;86.00;;;;;;5030909;28;20201;-65
2023/04/05 03:34:42;;;;;;;12.70;11.25;;;-1.60;87.50;;;;;;5030271;28;20198;-65
2023/04/05 03:37:09;;;;;;;13.95;10.43;;;-1.70;87.10;;;;;;5030900;28;20209;-68
2023/04/05 03:39:36;;;;;;;12.70;10.23;;;-1.60;87.70;;;;;;5030465;28;20224;-65
2023/04/05 03:42:03;;;;;;;13.88;10.63;;;-1.70;87.80;;;;;;5031121;28;20778;-65
2023/04/05 03:44:29;;;;;;;12.07;10.32;;;-1.70;88.40;;;;;;5030558;28;20214;-66
2023/04/05 03:46:58;;;;;;;12.48;10.30;;;-1.50;87.70;;;;;;5030711;28;20201;-64
2023/04/05 03:49:25;;;;;;;13.85;10.35;;;-1.50;87.60;;;;;;5030417;28;20225;-65
2023/04/05 03:51:51;;;;;;;12.48;10.60;;;-1.50;87.30;;;;;;5030462;28;20283;-67
2023/04/05 03:54:18;;;;;;;14.48;10.88;;;-1.60;87.60;;;;;;5030090;28;20664;-65
2023/04/05 03:56:45;;;;;;;11.82;10.25;;;-1.50;87.80;;;;;;5030496;28;20213;-65
2023/04/05 03:59:12;;;;;;;17.83;12.32;;;-1.70;87.30;;;;;;5030508;28;20217;-67
2023/04/05 04:01:38;;;;;;;13.10;10.38;;;-1.80;88.10;;;;;;5029985;28;20198;-66
2023/04/05 04:04:06;;;;;;;15.43;11.13;;;-1.90;89.20;;;;;;5030179;28;20202;-65
2023/04/05 04:06:33;;;;;;;12.60;10.60;;;-1.70;89.20;;;;;;5029966;28;20209;-65
2023/04/05 04:09:00;;;;;;;15.25;11.07;;;-1.80;88.30;;;;;;5030387;28;20224;-66
2023/04/05 04:11:27;;;;;;;13.70;11.02;;;-1.70;89.40;;;;;;5029892;28;20213;-66
2023/04/05 04:13:53;;;;;;;13.52;10.85;;;-1.60;89.40;;;;;;5029787;28;20683;-65
2023/04/05 04:16:20;;;;;;;13.90;10.45;;;-1.70;88.40;;;;;;5029947;28;20723;-68
2023/04/05 04:18:47;;;;;;;11.93;10.25;;;-1.80;89.20;;;;;;5029920;28;20225;-67
2023/04/05 04:21:17;;;;;;;15.75;10.20;;;-1.90;87.80;;;;;;5029964;28;20205;-66
2023/04/05 04:23:44;;;;;;;15.82;11.20;;;-1.90;87.50;;;;;;5029497;28;20222;-65
2023/04/05 04:26:13;;;;;;;16.35;11.15;;;-2.00;87.40;;;;;;5029622;28;20206;-67
2023/04/05 04:28:42;;;;;;;13.43;11.45;;;-2.00;88.50;;;;;;5029907;28;20205;-65
2023/04/05 04:31:12;;;;;;;15.40;11.23;;;-1.90;89.60;;;;;;5029903;28;20201;-66
2023/04/05 04:33:42;;;;;;;14.60;11.98;;;-2.00;88.50;;;;;;5029235;28;20198;-66
2023/04/05 04:36:12;;;;;;;15.77;12.40;;;-2.10;89.10;;;;;;5029998;28;20225;-66
2023/04/05 04:38:45;;;;;;;15.35;12.95;;;-2.10;89.60;;;;;;5029459;28;20198;-66
2023/04/05 04:41:13;;;;;;;15.32;11.48;;;-2.10;89.30;;;;;;5029836;28;20259;-66
2023/04/05 04:43:42;;;;;;;14.18;10.48;;;-2.10;90.00;;;;;;5029245;28;20234;-65
2023/04/05 04:46:13;;;;;;;15.88;11.75;;;-2.10;90.20;;;;;;5029475;28;20561;-65
2023/04/05 04:48:41;;;;;;;17.92;12.75;;;-2.10;90.30;;;;;;5029600;28;20592;-67
2023/04/05 04:51:08;;;;;;;13.07;10.95;;;-2.00;90.40;;;;;;5029389;28;20206;-64
2023/04/05 04:53:35;;;;;;;13.75;10.40;;;-2.00;90.20;;;;;;5029430;28;20209;-66
2023/04/05 04:56:06;;;;;;;16.88;12.25;;;-2.00;90.30;;;;;;5029479;28;20206;-65
2023/04/05 04:58:33;;;;;;;16.00;11.85;;;-2.10;90.50;;;;;;5029739;28;20264;-65
2023/04/05 05:01:00;;;;;;;14.18;12.68;;;-2.20;90.60;;;;;;5029523;28;20297;-68
2023/04/05 05:03:26;;;;;;;15.88;11.32;;;-2.20;90.60;;;;;;5029219;28;20912;-65
2023/04/05 05:05:53;;;;;;;13.55;11.82;;;-2.10;90.60;;;;;;5027206;28;20201;-66
2023/04/05 05:08:20;;;;;;;15.77;12.18;;;-2.00;90.20;;;;;;5030251;28;20209;-67
2023/04/05 05:10:51;;;;;;;12.90;11.38;;;-2.00;89.80;;;;;;5029628;28;20253;-68
2023/04/05 05:13:19;;;;;;;14.63;11.02;;;-2.00;89.70;;;;;;5029130;28;20215;-68
2023/04/05 05:15:47;;;;;;;14.40;10.88;;;-2.00;90.00;;;;;;5029995;28;20205;-68
2023/04/05 05:18:14;;;;;;;17.35;12.05;;;-1.90;90.00;;;;;;5029358;28;20646;-67
2023/04/05 05:20:41;;;;;;;12.30;11.00;;;-1.90;90.20;;;;;;5029466;28;20789;-66
2023/04/05 05:23:08;;;;;;;15.23;12.35;;;-1.90;90.50;;;;;;5028641;28;20729;-68
2023/04/05 05:25:35;;;;;;;18.75;12.27;;;-2.00;90.70;;;;;;5029562;28;20216;-66
2023/04/05 05:28:02;;;;;;;14.13;11.07;;;-1.90;90.60;;;;;;5029443;28;20209;-69
2023/04/05 05:30:30;;;;;;;15.85;12.70;;;-1.90;90.80;;;;;;5029712;28;20633;-67
2023/04/05 05:32:57;;;;;;;15.15;10.90;;;-1.80;90.90;;;;;;5029314;28;20206;-67
2023/04/05 05:35:24;;;;;;;15.52;12.18;;;-1.60;90.50;;;;;;5029792;28;20209;-67
2023/04/05 05:37:51;;;;;;;19.08;13.20;;;-1.60;90.20;;;;;;5030982;28;20206;-68
2023/04/05 05:40:18;;;;;;;16.65;12.23;;;-1.60;90.20;;;;;;5032905;28;20283;-68
2023/04/05 05:42:45;;;;;;;12.07;10.88;;;-1.60;89.70;;;;;;5033098;28;20228;-66
2023/04/05 05:45:12;;;;;;;12.98;10.68;;;-1.70;89.80;;;;;;5032996;28;20202;-67
2023/04/05 05:47:40;;;;;;;15.40;11.43;;;-1.70;90.20;;;;;;5033064;28;20205;-68
2023/04/05 05:50:09;;;;;;;14.63;10.88;;;-1.70;90.20;;;;;;5032474;28;20260;-69
2023/04/05 05:52:35;;;;;;;13.38;10.05;;;-1.70;90.00;;;;;;5032408;28;20209;-69
2023/04/05 05:55:03;;;;;;;13.70;11.60;;;-1.60;89.70;;;;;;5032705;28;20586;-68
2023/04/05 05:57:29;;;;;;;13.60;9.65;;;-1.40;88.00;;;;;;5032637;28;20555;-68
2023/04/05 05:59:56;;;;;;;10.88;9.43;;;-1.40;85.70;;;;;;5032654;28;20592;-67
2023/04/05 06:02:23;;;;;;;10.95;9.50;;;-1.40;85.10;;;;;;5031914;28;20229;-69
2023/04/05 06:04:51;;;;;;;11.43;10.23;;;-1.40;85.10;;;;;;5032443;28;20586;-68
2023/04/05 06:07:18;;;;;;;14.40;10.40;;;-1.20;85.20;;;;;;5032014;28;20593;-66
2023/04/05 06:09:46;;;;;;;14.80;11.10;;;-1.00;86.20;;;;;;5032228;28;20233;-68
2023/04/05 06:12:13;;;;;;;14.15;11.07;;;-0.90;83.50;;;;;;5032253;28;20206;-68
2023/04/05 06:14:39;;;;;;;12.63;10.38;;;-0.90;83.20;;;;;;5032143;28;20201;-68
2023/04/05 06:17:06;;;;;;;13.98;9.90;;;-0.60;82.20;;;;;;5031546;28;20202;-69
2023/04/05 06:19:33;;;;;;;13.25;11.13;;;-0.50;80.90;;;;;;5032078;28;20307;-67
2023/04/05 06:22:01;;;;;;;12.40;11.10;;;-0.30;83.20;;;;;;5028984;28;20210;-68
2023/04/05 06:24:30;;;;;;;14.15;10.98;;;-0.20;83.30;;;;;;5031999;28;20232;-69
2023/04/05 06:26:57;;;;;;;13.05;10.13;;;0.00;83.40;;;;;;5034026;28;20202;-68
2023/04/05 06:29:24;;;;;;;11.60;9.75;;;0.00;79.40;;;;;;5036378;28;20222;-70
2023/04/05 06:31:51;;;;;;;14.88;11.30;;;0.00;79.70;;;;;;5025233;28;20197;-69
2023/04/05 06:34:18;;;;;;;17.85;11.07;;;0.00;79.60;;;;;;5024834;28;20294;-69
2023/04/05 06:36:45;;;;;;;12.57;10.35;;;0.00;79.60;;;;;;5031811;28;20691;-70
2023/04/05 06:39:13;;;;;;;15.18;10.63;;;0.20;81.00;;;;;;5031508;28;20223;-69
2023/04/05 06:41:40;;;;;;;14.27;10.77;;;0.30;80.60;;;;;;5021584;28;20198;-70
2023/04/05 06:44:07;;;;;;;14.70;10.75;;;0.30;79.30;;;;;;5023598;28;20217;-68
2023/04/05 06:46:33;;;;;;;12.15;10.05;;;0.40;78.40;;;;;;5031742;28;20206;-69
2023/04/05 06:49:00;;;;;;;10.80;9.45;;;0.40;77.80;;;;;;5030772;28;20219;-68
2023/04/05 06:51:27;;;;;;;11.13;9.32;;;0.40;75.30;;;;;;5029205;28;20670;-68
2023/04/05 06:53:54;;;;;;;10.95;9.25;;;0.60;73.50;;;;;;5026799;28;20201;-67
2023/04/05 06:56:23;;;;;;;9.73;8.68;;;0.70;72.50;;;;;;5031270;28;20197;-69
2023/04/05 06:58:50;;;;;;;8.65;7.70;;;0.90;69.90;;;;;;5031600;28;20240;-68
2023/04/05 07:01:19;;;;;;;11.63;9.65;;;1.00;69.80;;;;;;5031140;28;20285;-68
2023/04/05 07:03:45;;;;;;;11.07;8.45;;;1.10;70.50;;;;;;5026119;28;20309;-68
2023/04/05 07:06:13;;;;;;;12.30;8.48;;;1.30;70.10;;;;;;5011864;28;20211;-69
2023/04/05 07:08:39;;;;;;;11.73;8.35;;;1.30;68.50;;;;;;5011618;28;20695;-67
2023/04/05 07:11:06;;;;;;;10.05;8.77;;;1.30;70.00;;;;;;5011559;28;20708;-68
2023/04/05 07:13:34;;;;;;;10.73;8.40;;;1.50;68.00;;;;;;5019028;28;20208;-68
2023/04/05 07:16:02;;;;;;;9.10;8.25;;;1.60;67.00;;;;;;5031395;28;20630;-69
2023/04/05 07:18:29;;;;;;;10.85;9.07;;;1.70;66.30;;;;;;5031910;28;20202;-68
2023/04/05 07:21:00;;;;;;;11.75;8.93;;;1.80;66.00;;;;;;5031752;28;20206;-68
2023/04/05 07:23:27;;;;;;;10.38;8.75;;;1.80;67.50;;;;;;5031042;28;20755;-70
2023/04/05 07:25:54;;;;;;;11.07;8.30;;;1.90;68.30;;;;;;5031582;28;20217;-68
2023/04/05 07:28:21;;;;;;;10.10;8.77;;;1.90;67.50;;;;;;5031147;28;20204;-70
2023/04/05 07:30:50;;;;;;;10.90;9.73;;;2.00;67.00;;;;;;5031488;28;20215;-67
2023/04/05 07:33:16;;;;;;;10.05;9.05;;;2.30;67.50;;;;;;5031133;28;20200;-68
2023/04/05 07:35:43;;;;;;;12.35;8.82;;;2.40;64.20;;;;;;5032079;28;20213;-67
2023/04/05 07:38:10;;;;;;;9.82;8.73;;;2.40;64.70;;;;;;5031729;28;20236;-67
2023/04/05 07:40:37;;;;;;;8.45;7.55;;;2.60;63.30;;;;;;5031206;28;20582;-66
2023/04/05 07:43:03;;;;;;;10.25;9.00;;;2.60;60.20;;;;;;5030464;28;20235;-69
2023/04/05 07:45:30;;;;;;;13.93;8.80;;;2.60;60.10;;;;;;5031186;28;20210;-67
2023/04/05 07:47:58;;;;;;;16.25;8.05;;;2.70;61.20;;;;;;5030593;28;20242;-67
2023/04/05 07:50:26;;;;;;;13.95;10.30;;;2.80;62.80;;;;;;5030954;28;20602;-67
2023/04/05 07:52:53;;;;;;;10.05;8.40;;;3.00;61.40;;;;;;5030538;28;20211;-68
2023/04/05 07:55:20;;;;;;;10.13;8.75;;;3.10;61.00;;;;;;5030632;28;20674;-68
2023/04/05 07:57:47;;;;;;;11.10;8.88;;;3.30;58.70;;;;;;5030470;28;20217;-68
2023/04/05 08:00:14;;;;;;;9.25;8.20;;;3.40;59.40;;;;;;5029935;28;20631;-67
2023/04/05 08:02:41;;;;;;;9.37;8.30;;;3.50;59.10;;;;;;5030363;28;20204;-66
2023/04/05 08:05:09;;;;;;;13.40;8.63;;;3.70;59.80;;;;;;5030343;28;20452;-67
2023/04/05 08:07:36;;;;;;;9.63;8.63;;;3.80;57.40;;;;;;5030524;28;20850;-68
2023/04/05 08:10:04;;;;;;;11.37;8.07;;;3.90;54.90;;;;;;5030050;28;20249;-67
2023/04/05 08:12:31;;;;;;;8.80;7.57;;;4.00;56.40;;;;;;5029884;28;20872;-66
2023/04/05 08:14:58;;;;;;;8.70;7.90;;;4.10;56.40;;;;;;5030005;28;20449;-64
2023/04/05 08:17:27;;;;;;;10.67;8.20;;;4.20;55.30;;;;;;5029784;28;20445;-64
2023/04/05 08:19:54;;;;;;;9.70;8.70;;;4.30;54.70;;;;;;5030051;28;21064;-67
2023/04/05 08:22:22;;;;;;;8.70;6.87;;;4.30;54.40;;;;;;5030378;28;20455;-66
2023/04/05 08:24:49;;;;;;;8.70;7.77;;;4.40;53.70;;;;;;5029595;28;20480;-68
2023/04/05 08:27:17;;;;;;;7.87;7.17;;;4.50;52.70;;;;;;5030387;28;20459;-69
2023/04/05 08:29:46;;;;;;;7.00;6.37;;;4.60;52.80;;;;;;5029948;28;20475;-65
2023/04/05 08:32:13;;;;;;;8.67;7.77;;;4.70;50.40;;;;;;5029649;28;20453;-68
2023/04/05 08:34:40;;;;;;;10.53;7.70;;;4.80;50.60;;;;;;5029889;28;20449;-67
2023/04/05 08:37:06;;;;;;;8.50;6.80;;;5.00;52.00;;;;;;5029960;28;20454;-66
2023/04/05 08:39:36;;;;;;;11.43;6.93;;;5.10;52.10;;;;;;5029836;28;20464;-64
2023/04/05 08:42:08;;;;;;;7.17;6.57;;;5.20;50.40;;;;;;5030204;28;20488;-66
2023/04/05 08:44:37;;;;;;;7.83;7.03;;;5.30;49.30;;;;;;5029863;28;20998;-66
2023/04/05 08:47:05;;;;;;;8.40;7.60;;;5.50;51.40;;;;;;5030454;28;20460;-66
2023/04/05 08:49:32;;;;;;;8.63;7.13;;;5.70;48.90;;;;;;5030198;28;20472;-67
2023/04/05 08:52:00;;;;;;;8.07;7.13;;;5.90;47.40;;;;;;5029972;28;20496;-66
2023/04/05 08:54:27;;;;;;;8.03;7.13;;;5.90;46.50;;;;;;5029814;28;21029;-66
2023/04/05 08:56:58;;;;;;;9.50;6.57;;;6.10;46.80;;;;;;5029910;28;20455;-65
2023/04/05 08:59:26;;;;;;;7.03;6.10;;;6.30;46.50;;;;;;5030027;28;20475;-66
2023/04/05 09:01:54;;;;;;;6.70;6.10;;;6.50;46.40;;;;;;5029898;28;20503;-67
2023/04/05 09:04:23;;;;;;;7.57;6.13;;;6.90;44.80;;;;;;5029558;28;20475;-67
2023/04/05 09:06:51;;;;;;;6.10;5.57;;;6.90;42.40;;;;;;5030032;28;20450;-67
2023/04/05 09:09:21;;;;;;;7.00;6.40;;;7.10;41.30;;;;;;5030091;28;20840;-67
2023/04/05 09:11:48;;;;;;;7.30;6.60;;;7.30;42.60;;;;;;5030514;28;20480;-67
2023/04/05 09:14:17;;;;;;;6.40;5.77;;;7.50;41.40;;;;;;5033419;28;20445;-66
2023/04/05 09:16:44;;;;;;;6.83;6.13;;;7.80;40.20;;;;;;5034150;28;20443;-65
2023/04/05 09:19:11;;;;;;;6.97;5.70;;;7.80;38.20;;;;;;5033973;28;20478;-66
2023/04/05 09:21:59;;;;;;;7.37;5.70;;;7.70;40.00;;;;;;5034043;28;20665;-67
2023/04/05 09:24:38;;;;;;;7.03;5.60;;;8.10;39.80;;;;;;5033675;28;20561;-67
2023/04/05 09:27:07;;;;;;;7.37;5.20;;;8.60;42.40;;;;;;5034084;28;20487;-67
2023/04/05 09:29:36;;;;;;;5.70;5.20;;;9.40;37.00;;;;;;5030456;28;20474;-66
2023/04/05 09:32:04;;;;;;;5.10;4.70;;;9.90;35.50;;;;;;5033567;28;20463;-66
2023/04/05 09:34:32;;;;;;;6.63;6.03;;;10.50;36.10;;;;;;5032998;28;20440;-67
2023/04/05 09:36:59;;;;;;;6.53;5.60;;;10.80;31.60;;;;;;5033086;28;20452;-68
2023/04/05 09:39:29;;;;;;;7.03;6.33;;;10.30;31.30;;;;;;5032782;28;21001;-67
2023/04/05 09:42:06;;;;;;;7.00;6.10;;;10.00;32.80;;;;;;5033202;28;20503;-68
2023/04/05 09:44:51;;;;;;;7.83;6.43;;;10.30;34.90;;;;;;5032781;28;20488;-68
2023/04/05 09:47:19;;;;;;;5.90;5.40;;;10.60;33.80;;;;;;5032919;28;20457;-68
2023/04/05 09:49:46;;;;;;;5.00;4.57;;;10.70;34.40;;;;;;5032736;28;21012;-68
2023/04/05 09:52:22;;;;;;;5.70;5.20;;;11.40;34.30;;;;;;5032819;28;20456;-66
2023/04/05 09:54:50;;;;;;;6.50;6.00;;;12.00;33.30;;;;;;5032270;28;20450;-67
2023/04/05 09:57:18;;;;;;;6.33;5.87;;;12.30;31.10;;;;;;5032685;28;20470;-67
2023/04/05 09:59:45;;;;;;;5.83;5.33;;;12.40;30.00;;;;;;5032739;28;20476;-65
2023/04/05 10:02:13;;;;;;;6.63;5.37;;;11.90;32.30;;;;;;5032670;28;20450;-66
2023/04/05 10:04:41;;;;;;;5.90;5.40;;;12.00;32.40;;;;;;5032078;28;20479;-68
2023/04/05 10:07:10;;;;;;;7.70;7.00;;;12.30;31.20;;;;;;5030774;28;20453;-67
2023/04/05 10:09:51;;;;;;;6.23;5.73;;;12.10;30.80;;;;;;5032794;28;20474;-67
2023/04/05 10:12:25;;;;;;;6.50;6.00;;;12.10;32.80;;;;;;5032293;28;20476;-67
2023/04/05 10:14:52;;;;;;;7.13;6.50;;;11.90;30.40;;;;;;5026742;28;20441;-67
2023/04/05 10:17:27;;;;;;;8.90;7.57;;;11.80;31.50;;;;;;5017917;28;20446;-65
2023/04/05 10:20:07;;;;;;;7.57;6.37;;;11.50;30.60;;;;;;5023249;28;20475;-66
2023/04/05 10:22:48;;;;;;;6.03;5.53;;;11.10;31.10;;;;;;5024533;28;20455;-66
2023/04/05 10:25:25;;;;;;;7.07;6.40;;;11.60;32.80;;;;;;5025713;28;20478;-67
2023/04/05 10:27:55;;;;;;;6.97;6.27;;;12.10;33.60;;;;;;5022115;28;20470;-68
2023/04/05 10:30:24;;;;;;;6.97;6.33;;;12.60;33.70;;;;;;5020096;28;20522;-67
2023/04/05 10:33:07;;;;;;;7.40;6.70;;;13.00;29.70;;;;;;5021663;28;20438;-67
2023/04/05 10:35:43;;;;;;;6.80;6.20;;;13.00;30.00;;;;;;5023268;28;20811;-65
2023/04/05 10:38:20;;;;;;;7.43;6.77;;;12.90;29.70;;;;;;5021602;28;20452;-65
2023/04/05 10:40:49;;;;;;;6.90;6.20;;;12.10;29.90;;;;;;5021541;28;20475;-67
2023/04/05 10:43:20;;;;;;;8.47;6.17;;;11.70;31.00;;;;;;5020328;28;21121;-67
2023/04/05 10:45:51;;;;;;;7.27;6.57;;;11.50;31.70;;;;;;5021762;28;21315;-67
2023/04/05 10:48:31;;;;;;;7.37;6.20;;;11.30;32.00;;;;;;5014648;28;20453;-67
2023/04/05 10:50:58;;;;;;;8.67;6.03;;;11.40;31.70;;;;;;5022749;28;20460;-68
2023/04/05 10:53:25;;;;;;;7.67;6.43;;;11.60;33.40;;;;;;5025469;28;20445;-67
2023/04/05 10:55:55;;;;;;;6.13;5.63;;;11.00;29.40;;;;;;5023628;28;20443;-67
2023/04/05 10:58:24;;;;;;;8.33;6.00;;;10.60;31.30;;;;;;5024044;28;20447;-66
2023/04/05 11:00:52;;;;;;;5.83;5.23;;;10.50;33.00;;;;;;5025597;28;20453;-66
2023/04/05 11:03:47;;;;;;;6.67;5.70;;;11.20;30.70;;;;;;5030957;28;20443;-66
2023/04/05 11:06:22;;;;;;;5.97;5.37;;;10.90;32.00;;;;;;5044084;28;20436;-66
2023/04/05 11:08:50;;;;;;;7.00;6.30;;;10.50;31.90;;;;;;5041655;28;20490;-68
2023/04/05 11:11:18;;;;;;;6.30;5.70;;;10.10;31.50;;;;;;5023574;28;20459;-65
2023/04/05 11:13:49;;;;;;;7.50;6.37;;;10.20;30.50;;;;;;5028240;28;20452;-68
2023/04/05 11:16:16;;;;;;;6.17;5.67;;;10.50;31.40;;;;;;5027150;28;20446;-67
2023/04/05 11:18:48;;;;;;;6.40;5.80;;;11.00;32.50;;;;;;5025153;28;20983;-68
2023/04/05 11:21:23;;;;;;;6.77;6.10;;;11.80;29.50;;;;;;5022103;28;20476;-68
2023/04/05 11:24:05;;;;;;;7.60;6.30;;;12.00;29.70;;;;;;5029169;28;20530;-68
2023/04/05 11:26:34;;;;;;;6.30;4.97;;;13.00;31.80;;;;;;5029766;28;20456;-68
2023/04/05 11:29:00;;;;;;;7.47;6.70;;;14.10;29.30;;;;;;5028685;28;20999;-65
2023/04/05 11:31:27;;;;;;;6.40;5.80;;;14.80;27.50;;;;;;5029562;28;20443;-66
2023/04/05 11:34:08;;;;;;;6.27;5.77;;;13.90;27.30;;;;;;5028467;28;20466;-66
2023/04/05 11:36:44;;;;;;;6.47;5.87;;;13.70;28.20;;;;;;5028389;28;20520;-66
2023/04/05 11:39:27;;;;;;;5.30;4.90;;;14.10;28.50;;;;;;5029474;28;20555;-67
2023/04/05 11:42:01;;;;;;;5.13;4.70;;;15.00;29.30;;;;;;5029447;28;20437;-65
2023/04/05 11:44:30;;;;;;;5.17;4.77;;;16.10;27.50;;;;;;5027894;28;20489;-67
2023/04/05 11:46:57;;;;;;;6.30;5.70;;;17.00;28.40;;;;;;5028682;28;20543;-66
2023/04/05 11:49:25;;;;;;;6.03;5.53;;;16.60;25.60;;;;;;5028589;28;20471;-66
2023/04/05 11:51:53;;;;;;;5.40;5.00;;;15.70;25.70;;;;;;5028092;28;20456;-66
2023/04/05 11:54:30;;;;;;;7.20;6.50;;;15.30;25.60;;;;;;5030142;28;21188;-66
2023/04/05 11:56:57;;;;;;;7.53;6.83;;;15.40;26.20;;;;;;5030497;28;20509;-65
2023/04/05 11:59:31;;;;;;;8.07;6.77;;;13.60;27.30;;;;;;5030381;28;20469;-67
2023/04/05 12:01:59;;;;;;;6.93;6.33;;;12.20;28.70;;;;;;5030433;28;20548;-66
2023/04/05 12:04:27;;;;;;;6.97;6.33;;;12.30;30.30;;;;;;5029949;28;21001;-68
2023/04/05 12:07:15;;;;;;;6.23;5.40;;;13.00;28.80;;;;;;5030129;28;20450;-65
2023/04/05 12:10:07;;;;;;;7.20;6.50;;;14.80;26.50;;;;;;5028435;28;20467;-68
2023/04/05 12:12:37;;;;;;;6.20;5.60;;;15.40;26.60;;;;;;5029917;28;20505;-68
2023/04/05 12:15:07;;;;;;;6.50;5.87;;;14.90;26.00;;;;;;5030236;28;20903;-68
2023/04/05 12:17:44;;;;;;;9.50;6.57;;;14.40;28.20;;;;;;5029970;28;20456;-66
2023/04/05 12:20:14;;;;;;;6.27;5.67;;;16.00;27.90;;;;;;5030950;28;20460;-68
2023/04/05 12:22:42;;;;;;;11.80;7.17;;;17.20;26.30;;;;;;5031690;28;20532;-67
2023/04/05 12:25:10;;;;;;;7.20;5.50;;;17.30;23.80;;;;;;5028958;28;20571;-69
2023/04/05 12:27:37;;;;;;;5.73;5.00;;;17.30;24.70;;;;;;5023778;28;20452;-67
2023/04/05 12:30:14;;;;;;;6.40;5.90;;;18.50;25.50;;;;;;5023591;28;20459;-69
2023/04/05 12:32:42;;;;;;;6.47;5.87;;;18.30;23.40;;;;;;5019136;28;20438;-67
2023/04/05 12:35:15;;;;;;;6.43;5.93;;;17.50;23.40;;;;;;5018767;28;20442;-67
2023/04/05 12:37:42;;;;;;;6.47;5.87;;;17.60;24.20;;;;;;5018891;28;20444;-68
2023/04/05 12:40:10;;;;;;;6.80;6.30;;;17.20;23.90;;;;;;5020146;28;20552;-66
2023/04/05 12:42:39;;;;;;;6.00;5.50;;;17.40;24.20;;;;;;5019723;28;20976;-67
2023/04/05 12:45:07;;;;;;;6.13;5.53;;;17.50;24.50;;;;;;5029931;28;20477;-67
2023/04/05 12:47:35;;;;;;;7.13;5.37;;;17.60;24.60;;;;;;5029670;28;20448;-67
2023/04/05 12:50:15;;;;;;;6.03;5.53;;;17.80;25.30;;;;;;5019861;28;20490;-68